createdAt,value
2023-03-22T00:03:11.005Z,7.77
2023-03-22T00:08:14.080Z,7.43
2023-03-22T00:13:16.616Z,7.97
2023-03-22T00:18:19.692Z,9.03
2023-03-22T00:23:23.339Z,9.98
2023-03-22T00:28:25.937Z,10.37
2023-03-22T00:33:30.148Z,11.83
2023-03-22T00:38:43.649Z,10.98
2023-03-22T00:43:47.556Z,11.63
2023-03-22T00:48:50.050Z,8.23
2023-03-22T00:53:54.208Z,9.52
2023-03-22T00:58:57.144Z,7.80
2023-03-22T01:04:00.090Z,8.55
2023-03-22T01:09:02.737Z,8.23
2023-03-22T01:14:05.328Z,8.43
2023-03-22T01:19:27.670Z,9.57
2023-03-22T01:24:30.257Z,12.17
2023-03-22T01:29:32.741Z,11.17
2023-03-22T01:34:38.338Z,11.32
2023-03-22T01:39:41.642Z,13.13
2023-03-22T01:45:14.829Z,13.18
2023-03-22T01:50:24.703Z,15.15
2023-03-22T01:55:28.428Z,15.03
2023-03-22T02:00:42.847Z,14.73
2023-03-22T02:06:19.169Z,16.37
2023-03-22T02:11:33.346Z,16.10
2023-03-22T02:16:46.983Z,14.60
2023-03-22T02:22:22.229Z,11.27
2023-03-22T02:28:06.925Z,9.18
2023-03-22T02:33:18.419Z,10.40
2023-03-22T02:38:45.969Z,9.38
2023-03-22T02:43:57.273Z,8.05
2023-03-22T02:49:21.180Z,8.43
2023-03-22T02:54:34.428Z,7.65
2023-03-22T02:59:41.239Z,7.47
2023-03-22T03:04:48.453Z,6.43
2023-03-22T03:09:51.903Z,7.10
2023-03-22T03:14:54.961Z,6.13
2023-03-22T03:20:09.697Z,6.20
2023-03-22T03:25:31.199Z,6.57
2023-03-22T03:30:45.630Z,5.65
2023-03-22T03:35:58.880Z,5.18
2023-03-22T03:41:05.462Z,5.77
2023-03-22T03:46:09.159Z,6.72
2023-03-22T03:51:11.785Z,5.83
2023-03-22T03:56:14.588Z,6.07
2023-03-22T04:01:21.910Z,6.63
2023-03-22T04:06:34.988Z,6.30
2023-03-22T04:11:44.573Z,6.10
2023-03-22T04:16:48.819Z,6.50
2023-03-22T04:21:55.072Z,6.88
2023-03-22T04:27:01.472Z,7.50
2023-03-22T04:32:10.860Z,6.70
2023-03-22T04:37:18.623Z,8.00
2023-03-22T04:42:41.410Z,7.83
2023-03-22T04:47:57.580Z,6.40
2023-03-22T04:53:00.414Z,7.53
2023-03-22T04:58:03.306Z,8.70
2023-03-22T05:03:06.161Z,8.95
2023-03-22T05:08:14.599Z,10.45
2023-03-22T05:13:22.213Z,7.50
2023-03-22T05:18:26.534Z,8.10
2023-03-22T05:23:32.088Z,9.38
2023-03-22T05:28:36.093Z,12.43
2023-03-22T05:33:55.568Z,10.93
2023-03-22T05:39:03.403Z,13.03
2023-03-22T05:44:06.672Z,12.52
2023-03-22T05:49:12.299Z,11.68
2023-03-22T05:54:16.230Z,11.87
2023-03-22T05:59:24.645Z,11.43
2023-03-22T06:04:27.423Z,11.73
2023-03-22T06:09:37.112Z,11.30
2023-03-22T06:14:43.663Z,9.73
2023-03-22T06:19:56.041Z,10.88
2023-03-22T06:24:59.741Z,10.57
2023-03-22T06:30:14.114Z,10.23
2023-03-22T06:35:39.613Z,10.32
2023-03-22T06:40:45.309Z,10.13
2023-03-22T06:45:49.361Z,11.55
2023-03-22T06:50:57.700Z,10.60
2023-03-22T06:56:05.463Z,10.87
2023-03-22T07:01:21.726Z,12.15
2023-03-22T07:06:24.674Z,10.63
2023-03-22T07:11:30.674Z,12.17
2023-03-22T07:16:35.879Z,13.30
2023-03-22T07:21:40.920Z,13.30
2023-03-22T07:26:46.876Z,13.37
2023-03-22T07:31:54.623Z,13.85
2023-03-22T07:37:05.255Z,12.82
2023-03-22T07:42:08.167Z,13.67
2023-03-22T07:47:40.759Z,9.57
2023-03-22T07:53:04.578Z,8.50
2023-03-22T07:58:07.158Z,9.70
2023-03-22T08:03:12.651Z,9.43
2023-03-22T08:08:32.939Z,9.32
2023-03-22T08:13:36.052Z,8.52
2023-03-22T08:18:39.227Z,7.43
2023-03-22T08:23:43.162Z,8.48
2023-03-22T08:29:04.251Z,7.20
2023-03-22T08:34:10.419Z,7.93
2023-03-22T08:39:13.830Z,7.10
2023-03-22T08:44:26.832Z,6.97
2023-03-22T08:49:30.189Z,7.30
2023-03-22T08:54:38.842Z,8.23
2023-03-22T08:59:41.403Z,7.95
2023-03-22T09:05:10.816Z,8.00
2023-03-22T09:10:14.393Z,8.10
2023-03-22T09:15:19.270Z,6.63
2023-03-22T09:20:35.015Z,7.22
2023-03-22T09:25:46.719Z,7.73
2023-03-22T09:30:51.660Z,6.13
2023-03-22T09:35:55.781Z,6.78
2023-03-22T09:41:14.534Z,7.40
2023-03-22T09:46:37.161Z,8.27
2023-03-22T09:51:45.607Z,7.43
2023-03-22T09:56:58.507Z,8.30
2023-03-22T10:02:05.609Z,8.10
2023-03-22T10:07:18.947Z,8.40
2023-03-22T10:12:28.783Z,8.90
2023-03-22T10:18:08.625Z,9.87
2023-03-22T10:23:21.313Z,10.07
2023-03-22T10:29:06.355Z,9.93
2023-03-22T10:34:31.511Z,10.43
2023-03-22T10:39:45.535Z,9.30
2023-03-22T10:44:52.290Z,8.57
2023-03-22T10:49:58.255Z,8.82
2023-03-22T10:55:04.355Z,8.40
2023-03-22T11:00:12.956Z,9.73
2023-03-22T11:05:23.316Z,10.55
2023-03-22T11:10:29.579Z,9.20
2023-03-22T11:15:34.077Z,8.73
2023-03-22T11:20:40.304Z,8.93
2023-03-22T11:25:49.663Z,10.13
2023-03-22T11:31:07.009Z,9.37
2023-03-22T11:36:19.206Z,9.35
2023-03-22T11:41:26.136Z,8.77
2023-03-22T11:46:30.159Z,8.90
2023-03-22T11:51:38.655Z,9.25
2023-03-22T11:56:47.589Z,8.63
2023-03-22T12:01:53.077Z,6.93
2023-03-22T12:07:05.964Z,6.50
2023-03-22T12:12:19.547Z,8.23
2023-03-22T12:17:41.131Z,5.90
2023-03-22T12:22:51.384Z,6.53
2023-03-22T12:27:57.533Z,6.43
2023-03-22T12:33:06.111Z,6.30
2023-03-22T12:38:35.770Z,5.60
2023-03-22T12:44:11.507Z,6.32
2023-03-22T12:49:21.950Z,6.45
2023-03-22T12:54:26.488Z,6.37
2023-03-22T12:59:31.590Z,6.00
2023-03-22T13:04:37.361Z,5.57
2023-03-22T13:09:51.044Z,6.40
2023-03-22T13:15:01.570Z,5.67
2023-03-22T13:20:07.100Z,6.50
2023-03-22T13:25:19.271Z,7.38
2023-03-22T13:30:24.576Z,6.80
2023-03-22T13:35:41.111Z,6.45
2023-03-22T13:41:00.105Z,6.25
2023-03-22T13:46:10.110Z,5.87
2023-03-22T13:51:25.839Z,6.22
2023-03-22T13:56:32.052Z,6.78
2023-03-22T14:01:38.482Z,6.23
2023-03-22T14:06:52.737Z,5.97
2023-03-22T14:12:08.750Z,7.05
2023-03-22T14:17:21.259Z,5.30
